Time;durP1;ratioP1;P1;durP2;ratioP2;P2;SDS_P1;SDS_P2;PMS_P1;PMS_P2;Temp;Humidity;BMP_temperature;BMP_pressure;BME280_temperature;BME280_humidity;BME280_pressure;Samples;Min_cycle;Max_cycle;Signal;HPM_P1;HPM_P2
2022/12/11 00:01:20;;;;;;;13.60;8.30;;;-2.20;99.90;;;;;;5104023;27;20214;-83
2022/12/11 00:03:47;;;;;;;12.53;7.90;;;-2.20;99.90;;;;;;5076815;28;20254;-81
2022/12/11 00:06:18;;;;;;;15.30;11.63;;;-2.20;99.90;;;;;;5095648;27;21109;-82
2022/12/11 00:08:45;;;;;;;12.20;7.87;;;-2.10;99.90;;;;;;5081950;27;20235;-83
2022/12/11 00:11:13;;;;;;;11.83;8.03;;;-2.10;99.90;;;;;;5077563;28;20768;-82
2022/12/11 00:13:40;;;;;;;11.93;7.50;;;-2.10;99.90;;;;;;5078099;28;20234;-82
2022/12/11 00:16:08;;;;;;;10.33;6.83;;;-2.10;99.90;;;;;;5077008;28;20225;-81
2022/12/11 00:18:35;;;;;;;10.30;7.17;;;-2.20;99.90;;;;;;5084290;28;20701;-81
2022/12/11 00:21:04;;;;;;;12.20;7.97;;;-2.20;99.90;;;;;;5072648;28;20214;-86
2022/12/11 00:23:34;;;;;;;11.80;7.07;;;-2.20;99.90;;;;;;5084623;27;20228;-80
2022/12/11 00:26:05;;;;;;;10.33;7.47;;;-2.30;99.90;;;;;;5085387;28;20298;-82
2022/12/11 00:28:33;;;;;;;10.63;7.87;;;-2.30;99.90;;;;;;5092058;28;20832;-85
2022/12/11 00:31:02;;;;;;;14.13;8.13;;;-2.30;99.90;;;;;;5090788;28;20316;-82
2022/12/11 00:33:29;;;;;;;15.07;9.33;;;-2.30;99.90;;;;;;5101913;28;20230;-83
2022/12/11 00:35:56;;;;;;;16.23;9.90;;;-2.30;99.90;;;;;;5099570;28;20274;-82
2022/12/11 00:38:23;;;;;;;13.50;9.40;;;-2.20;99.90;;;;;;5080699;27;20225;-81
2022/12/11 00:40:51;;;;;;;16.17;10.13;;;-2.20;99.90;;;;;;5115333;27;20232;-82
2022/12/11 00:43:18;;;;;;;15.60;9.20;;;-2.20;99.90;;;;;;5078409;28;20217;-82
2022/12/11 00:45:46;;;;;;;15.13;9.13;;;-2.20;99.90;;;;;;5092553;27;20240;-82
2022/12/11 00:48:13;;;;;;;18.00;9.43;;;-2.10;99.90;;;;;;5103273;28;20227;-82
2022/12/11 00:50:41;;;;;;;15.10;9.40;;;-2.10;99.90;;;;;;5095633;27;20233;-83
2022/12/11 00:53:08;;;;;;;13.90;9.43;;;-2.10;99.90;;;;;;5103758;27;20751;-81
2022/12/11 00:55:37;;;;;;;16.23;9.37;;;-2.10;99.90;;;;;;5104487;27;20224;-82
2022/12/11 00:58:05;;;;;;;15.20;9.43;;;-2.10;99.90;;;;;;5097954;27;20248;-81
2022/12/11 01:00:32;;;;;;;17.03;9.93;;;-2.10;99.90;;;;;;5100626;27;20223;-83
2022/12/11 01:02:59;;;;;;;14.73;8.73;;;-2.00;99.90;;;;;;5099742;27;20218;-82
2022/12/11 01:05:26;;;;;;;13.77;9.27;;;-2.00;99.90;;;;;;5102006;27;20254;-82
2022/12/11 01:07:53;;;;;;;13.27;9.20;;;-2.00;99.90;;;;;;5104294;27;20216;-82
2022/12/11 01:10:26;;;;;;;15.67;9.93;;;-2.00;99.90;;;;;;5104415;28;20733;-85
2022/12/11 01:12:55;;;;;;;16.27;10.27;;;-2.00;99.90;;;;;;5109637;27;20228;-83
2022/12/11 01:15:25;;;;;;;17.80;11.17;;;-2.00;99.90;;;;;;5102148;27;20248;-85
2022/12/11 01:17:53;;;;;;;39.63;11.47;;;-2.00;99.90;;;;;;5103214;27;20250;-82
2022/12/11 01:20:22;;;;;;;18.37;11.53;;;-2.00;99.90;;;;;;5097861;28;20293;-85
2022/12/11 01:22:51;;;;;;;18.70;11.80;;;-2.00;99.90;;;;;;5087010;28;20295;-83
2022/12/11 01:25:18;;;;;;;17.70;11.53;;;-2.00;99.90;;;;;;5091083;28;20230;-83
2022/12/11 01:27:45;;;;;;;14.00;10.37;;;-2.00;99.90;;;;;;5081427;28;20241;-81
2022/12/11 01:30:14;;;;;;;15.77;10.37;;;-2.00;99.90;;;;;;5083611;28;20931;-85
2022/12/11 01:32:42;;;;;;;16.37;10.40;;;-2.00;99.90;;;;;;5080460;28;20264;-83
2022/12/11 01:35:09;;;;;;;19.30;11.70;;;-2.00;99.90;;;;;;5096137;28;20288;-82
2022/12/11 01:37:36;;;;;;;16.30;10.43;;;-2.00;99.90;;;;;;5086642;28;20229;-81
2022/12/11 01:40:03;;;;;;;19.43;11.77;;;-2.00;99.90;;;;;;5085028;28;20225;-83
2022/12/11 01:42:30;;;;;;;19.67;12.13;;;-2.10;99.90;;;;;;5079088;28;20228;-83
2022/12/11 01:45:32;;;;;;;20.37;12.30;;;-2.10;99.90;;;;;;5086816;27;20233;-84
2022/12/11 01:48:06;;;;;;;17.67;11.20;;;-2.10;99.90;;;;;;5104902;27;20243;-85
2022/12/11 01:50:38;;;;;;;17.30;11.43;;;-2.10;99.90;;;;;;5102533;28;20256;-84
2022/12/11 01:53:07;;;;;;;16.23;10.33;;;-2.10;99.90;;;;;;5096412;28;20228;-82
2022/12/11 01:55:34;;;;;;;16.87;10.77;;;-2.10;99.90;;;;;;5092230;27;20356;-83
2022/12/11 01:58:02;;;;;;;16.03;9.80;;;-2.10;99.90;;;;;;5100475;28;20631;-82
2022/12/11 02:00:29;;;;;;;16.43;10.10;;;-2.10;99.90;;;;;;5087414;27;20712;-81
2022/12/11 02:02:55;;;;;;;15.63;9.43;;;-2.10;99.90;;;;;;5105947;27;20270;-83
2022/12/11 02:05:23;;;;;;;18.83;10.53;;;-2.10;99.90;;;;;;5088284;28;20317;-82
2022/12/11 02:07:54;;;;;;;33.67;11.73;;;-2.20;99.90;;;;;;5080330;28;20858;-81
2022/12/11 02:10:22;;;;;;;16.60;10.17;;;-2.20;99.90;;;;;;5085354;28;20312;-81
2022/12/11 02:12:57;;;;;;;18.47;10.30;;;-2.10;99.90;;;;;;5105065;27;20241;-80
2022/12/11 02:15:31;;;;;;;20.13;10.93;;;-2.20;99.90;;;;;;5093826;27;20316;-82
2022/12/11 02:18:10;;;;;;;16.70;10.40;;;-2.10;99.90;;;;;;5107205;28;20215;-82
2022/12/11 02:20:42;;;;;;;17.00;10.30;;;-2.10;99.90;;;;;;5092938;28;20591;-82
2022/12/11 02:23:29;;;;;;;17.87;10.30;;;-2.10;99.90;;;;;;5096196;28;20207;-86
2022/12/11 02:26:06;;;;;;;16.10;10.03;;;-2.10;99.90;;;;;;5089658;28;20225;-84
2022/12/11 02:28:39;;;;;;;14.37;9.57;;;-2.10;99.90;;;;;;5094369;28;21139;-84
2022/12/11 02:31:10;;;;;;;16.07;9.30;;;-2.10;99.90;;;;;;5091408;27;20228;-83
2022/12/11 02:33:43;;;;;;;13.83;8.67;;;-2.20;99.90;;;;;;5084674;28;20216;-84
2022/12/11 02:36:10;;;;;;;13.70;8.43;;;-2.20;99.90;;;;;;5081230;28;20291;-84
2022/12/11 02:38:40;;;;;;;17.67;9.73;;;-2.20;99.90;;;;;;5084123;28;20946;-82
2022/12/11 02:41:09;;;;;;;14.97;9.47;;;-2.20;99.90;;;;;;5095466;28;20225;-82
2022/12/11 02:43:38;;;;;;;15.60;9.93;;;-2.20;99.90;;;;;;5087405;28;20875;-85
2022/12/11 02:46:07;;;;;;;16.30;9.83;;;-2.20;99.90;;;;;;5087778;28;20309;-85
2022/12/11 02:48:35;;;;;;;16.37;10.60;;;-2.20;99.90;;;;;;5120282;27;20217;-82
2022/12/11 02:51:04;;;;;;;17.40;10.63;;;-2.20;99.90;;;;;;5089454;28;20260;-83
2022/12/11 02:53:34;;;;;;;13.87;9.30;;;-2.20;99.90;;;;;;5081816;28;20247;-82
2022/12/11 02:56:08;;;;;;;15.63;9.70;;;-2.20;99.90;;;;;;5078851;28;20255;-83
2022/12/11 02:58:42;;;;;;;17.00;10.30;;;-2.20;99.90;;;;;;5083421;28;20405;-83
2022/12/11 03:01:10;;;;;;;18.03;10.40;;;-2.20;99.90;;;;;;5073917;28;20248;-84
2022/12/11 03:03:37;;;;;;;21.20;11.63;;;-2.20;99.90;;;;;;5095810;27;20235;-82
2022/12/11 03:06:04;;;;;;;17.47;11.37;;;-2.20;99.90;;;;;;5083382;28;20248;-82
2022/12/11 03:08:32;;;;;;;17.73;10.70;;;-2.30;99.90;;;;;;5090327;28;20233;-88
2022/12/11 03:10:59;;;;;;;17.57;11.03;;;-2.20;99.90;;;;;;5103039;28;20300;-82
2022/12/11 03:13:26;;;;;;;21.67;10.57;;;-2.30;99.90;;;;;;5102812;27;20697;-84
2022/12/11 03:16:07;;;;;;;17.70;10.83;;;-2.30;99.90;;;;;;5102019;28;20223;-83
2022/12/11 03:18:40;;;;;;;16.33;10.37;;;-2.20;99.90;;;;;;5091827;28;20300;-82
2022/12/11 03:21:11;;;;;;;22.50;11.77;;;-2.20;99.90;;;;;;5091832;28;20222;-85
2022/12/11 03:23:44;;;;;;;20.90;11.83;;;-2.30;99.90;;;;;;5106652;27;20212;-86
2022/12/11 03:26:15;;;;;;;18.53;11.70;;;-2.30;99.90;;;;;;5086998;28;20216;-82
2022/12/11 03:28:46;;;;;;;23.73;11.30;;;-2.30;99.90;;;;;;5088873;28;20226;-81
2022/12/11 03:31:19;;;;;;;19.87;11.53;;;-2.30;99.90;;;;;;5085636;28;20226;-82
2022/12/11 03:33:49;;;;;;;18.20;11.67;;;-2.30;99.90;;;;;;5113914;27;20245;-86
2022/12/11 03:36:20;;;;;;;19.03;12.27;;;-2.30;99.90;;;;;;5093105;28;20231;-81
2022/12/11 03:38:51;;;;;;;17.23;11.67;;;-2.40;99.90;;;;;;5102695;28;20970;-84
2022/12/11 03:41:21;;;;;;;17.67;11.37;;;-2.40;99.90;;;;;;5073595;28;20226;-82
2022/12/11 03:43:51;;;;;;;18.23;11.17;;;-2.50;99.90;;;;;;5075601;28;20228;-82
2022/12/11 03:46:22;;;;;;;17.57;10.87;;;-2.50;99.90;;;;;;5131418;27;20831;-82
2022/12/11 03:48:50;;;;;;;18.50;10.70;;;-2.50;99.90;;;;;;5102073;28;20646;-83
2022/12/11 03:51:18;;;;;;;16.30;10.23;;;-2.50;99.90;;;;;;5102493;27;20224;-83
2022/12/11 03:53:46;;;;;;;14.70;9.27;;;-2.60;99.90;;;;;;5096908;28;20315;-84
2022/12/11 03:56:15;;;;;;;15.30;10.00;;;-2.60;99.90;;;;;;5079088;28;20308;-82
2022/12/11 03:58:42;;;;;;;16.90;10.10;;;-2.60;99.90;;;;;;5085013;28;20249;-82
2022/12/11 04:01:10;;;;;;;15.43;10.03;;;-2.60;99.90;;;;;;5093573;27;20630;-82
2022/12/11 04:03:38;;;;;;;15.97;10.10;;;-2.60;99.90;;;;;;5130716;27;20221;-82
2022/12/11 04:06:06;;;;;;;16.67;9.90;;;-2.60;99.90;;;;;;5118640;27;20252;-81
2022/12/11 04:08:32;;;;;;;18.87;10.47;;;-2.70;99.90;;;;;;5104412;27;20273;-82
2022/12/11 04:13:43;;;;;;;15.40;9.97;;;-2.70;99.90;;;;;;5093465;27;20225;-81
2022/12/11 04:16:09;;;;;;;16.17;9.87;;;-2.70;99.90;;;;;;5090896;28;20758;-84
2022/12/11 04:24:16;;;;;;;14.87;9.77;;;-2.70;99.90;;;;;;5085402;27;20219;-82
2022/12/11 04:26:43;;;;;;;16.13;10.67;;;-2.60;99.90;;;;;;5089846;27;20213;-82
2022/12/11 04:29:10;;;;;;;19.43;11.10;;;-2.60;99.90;;;;;;5099365;27;20222;-82
2022/12/11 04:31:37;;;;;;;15.63;10.07;;;-2.60;99.90;;;;;;5110376;28;20725;-82
2022/12/11 04:34:05;;;;;;;18.57;11.40;;;-2.60;99.90;;;;;;5080706;28;20747;-82
2022/12/11 04:36:31;;;;;;;18.13;10.80;;;-2.60;99.90;;;;;;5087262;28;20281;-82
2022/12/11 04:38:58;;;;;;;19.77;11.60;;;-2.60;99.90;;;;;;5083018;28;20224;-82
2022/12/11 04:41:25;;;;;;;20.53;11.17;;;-2.50;99.90;;;;;;5080290;28;20226;-82
2022/12/11 04:43:52;;;;;;;18.20;11.57;;;-2.50;99.90;;;;;;5075101;28;20319;-81
2022/12/11 04:46:21;;;;;;;20.20;12.43;;;-2.50;99.90;;;;;;5079932;28;20259;-84
2022/12/11 04:48:49;;;;;;;19.53;11.27;;;-2.50;99.90;;;;;;5086360;28;20544;-82
2022/12/11 04:51:18;;;;;;;17.90;10.93;;;-2.40;99.90;;;;;;5080339;28;20269;-83
2022/12/11 04:53:45;;;;;;;16.87;11.07;;;-2.40;99.90;;;;;;5088813;28;20847;-82
2022/12/11 04:56:14;;;;;;;17.57;11.60;;;-2.40;99.90;;;;;;5094275;28;20228;-83
2022/12/11 04:58:42;;;;;;;19.60;11.40;;;-2.40;99.90;;;;;;5086612;27;20300;-82
2022/12/11 05:01:09;;;;;;;16.13;10.20;;;-2.40;99.90;;;;;;5091049;27;22262;-81
2022/12/11 05:03:37;;;;;;;18.97;11.30;;;-2.40;99.90;;;;;;5120337;27;20225;-83
2022/12/11 05:06:03;;;;;;;19.13;11.37;;;-2.40;99.90;;;;;;5101416;28;20279;-84
2022/12/11 05:08:33;;;;;;;15.63;10.43;;;-2.40;99.90;;;;;;5081515;28;20663;-83
2022/12/11 05:11:03;;;;;;;16.53;10.37;;;-2.40;99.90;;;;;;5074591;28;20241;-84
2022/12/11 05:13:30;;;;;;;17.83;10.97;;;-2.40;99.90;;;;;;5078956;28;20249;-80
2022/12/11 05:15:59;;;;;;;18.47;11.00;;;-2.40;99.90;;;;;;5085717;28;20294;-82
2022/12/11 05:18:25;;;;;;;18.83;10.77;;;-2.40;99.90;;;;;;5089033;27;20228;-82
2022/12/11 05:20:56;;;;;;;15.53;10.20;;;-2.40;99.90;;;;;;5088489;28;20764;-83
2022/12/11 05:23:23;;;;;;;15.90;10.30;;;-2.40;99.90;;;;;;5076486;28;20232;-82
2022/12/11 05:25:53;;;;;;;17.83;11.03;;;-2.50;99.90;;;;;;5079729;28;20225;-81
2022/12/11 05:28:20;;;;;;;19.43;11.67;;;-2.40;99.90;;;;;;5097348;27;20227;-84
2022/12/11 05:30:47;;;;;;;19.00;11.93;;;-2.60;99.90;;;;;;5086224;28;20288;-82
2022/12/11 05:33:14;;;;;;;17.60;10.93;;;-2.60;99.90;;;;;;5089787;28;20551;-81
2022/12/11 05:35:47;;;;;;;18.33;11.27;;;-2.70;99.90;;;;;;5084347;28;20334;-83
2022/12/11 05:38:14;;;;;;;18.00;10.60;;;-2.80;99.90;;;;;;5094036;28;20229;-82
2022/12/11 05:40:41;;;;;;;15.27;10.47;;;-2.80;99.90;;;;;;5102557;27;20681;-85
2022/12/11 05:43:09;;;;;;;17.90;11.67;;;-2.90;99.90;;;;;;5103023;27;20216;-80
2022/12/11 05:45:37;;;;;;;17.33;10.33;;;-3.00;99.90;;;;;;5096586;28;20235;-81
2022/12/11 05:48:04;;;;;;;15.70;10.17;;;-3.10;99.90;;;;;;5104176;27;20312;-84
2022/12/11 05:50:31;;;;;;;19.10;11.47;;;-3.20;99.90;;;;;;5096818;27;20236;-81
2022/12/11 05:53:00;;;;;;;17.50;10.60;;;-3.30;99.90;;;;;;5089888;28;20234;-84
2022/12/11 05:55:26;;;;;;;17.10;10.70;;;-3.40;99.90;;;;;;5079677;28;20254;-82
2022/12/11 05:57:53;;;;;;;17.60;11.33;;;-3.50;99.90;;;;;;5080230;28;20590;-81
2022/12/11 06:00:21;;;;;;;18.87;11.77;;;-3.50;99.90;;;;;;5087219;28;20217;-84
2022/12/11 06:02:48;;;;;;;17.53;11.20;;;-3.60;99.90;;;;;;5094073;27;20813;-85
2022/12/11 06:05:14;;;;;;;18.77;11.33;;;-3.70;99.90;;;;;;5093314;28;20238;-82
2022/12/11 06:07:41;;;;;;;17.47;11.17;;;-3.80;99.90;;;;;;5097439;28;20221;-82
2022/12/11 06:10:09;;;;;;;16.67;10.17;;;-3.90;99.90;;;;;;5096113;27;20222;-80
2022/12/11 06:12:36;;;;;;;17.10;10.43;;;-4.00;99.90;;;;;;5083791;28;20221;-83
2022/12/11 06:15:04;;;;;;;19.07;11.43;;;-4.00;99.90;;;;;;5094709;28;22159;-81
2022/12/11 06:17:34;;;;;;;19.67;11.27;;;-4.10;99.90;;;;;;5078800;28;20312;-83
2022/12/11 06:20:01;;;;;;;19.80;10.97;;;-4.20;99.90;;;;;;5110491;27;20220;-81
2022/12/11 06:22:28;;;;;;;20.60;11.40;;;-4.30;99.90;;;;;;5109028;27;20314;-82
2022/12/11 06:24:55;;;;;;;19.67;11.63;;;-4.30;99.90;;;;;;5092511;28;20308;-81
2022/12/11 06:27:23;;;;;;;20.60;11.37;;;-4.40;99.90;;;;;;5096922;27;20210;-82
2022/12/11 06:29:50;;;;;;;17.00;10.87;;;-4.50;99.90;;;;;;5085625;27;20222;-81
2022/12/11 06:32:17;;;;;;;30.13;17.47;;;-4.50;99.90;;;;;;5091037;27;20231;-80
2022/12/11 06:34:45;;;;;;;27.33;17.63;;;-4.60;99.90;;;;;;5087005;28;20319;-80
2022/12/11 06:37:11;;;;;;;22.67;13.30;;;-4.60;99.90;;;;;;5083615;28;20223;-81
2022/12/11 06:39:38;;;;;;;19.83;12.07;;;-4.70;99.90;;;;;;5075474;28;20227;-81
2022/12/11 06:42:05;;;;;;;19.37;11.47;;;-4.70;99.90;;;;;;5082675;27;20452;-79
2022/12/11 06:44:32;;;;;;;19.67;11.70;;;-4.80;99.90;;;;;;5085694;28;20254;-81
2022/12/11 06:46:58;;;;;;;21.03;11.67;;;-4.80;99.90;;;;;;5083685;28;20235;-80
2022/12/11 06:49:25;;;;;;;21.30;12.13;;;-4.90;99.90;;;;;;5083619;28;20232;-80
2022/12/11 06:51:53;;;;;;;20.70;12.00;;;-4.90;99.90;;;;;;5088194;28;20233;-80
2022/12/11 06:54:20;;;;;;;19.03;12.07;;;-4.90;99.90;;;;;;5076627;28;20226;-80
2022/12/11 06:56:46;;;;;;;20.63;12.43;;;-5.00;99.90;;;;;;5102589;27;20720;-80
2022/12/11 06:59:13;;;;;;;22.47;12.10;;;-5.10;99.90;;;;;;5096568;27;20733;-80
2022/12/11 07:01:40;;;;;;;20.00;12.30;;;-5.10;99.90;;;;;;5101415;27;20224;-80
2022/12/11 07:04:08;;;;;;;22.70;11.10;;;-5.10;99.90;;;;;;5097519;27;20222;-81
2022/12/11 07:06:35;;;;;;;19.03;12.43;;;-5.20;99.90;;;;;;5094384;28;20329;-80
2022/12/11 07:09:05;;;;;;;19.93;11.40;;;-5.20;99.90;;;;;;5106002;27;20734;-81
2022/12/11 07:11:32;;;;;;;18.47;11.63;;;-5.30;99.90;;;;;;5096448;28;20216;-80
2022/12/11 07:13:59;;;;;;;22.10;12.43;;;-5.40;99.90;;;;;;5099109;27;20254;-81
2022/12/11 07:16:27;;;;;;;21.27;12.93;;;-5.40;99.90;;;;;;5088000;27;20320;-81
2022/12/11 07:18:55;;;;;;;21.10;12.10;;;-5.40;99.90;;;;;;5100555;27;20230;-82
2022/12/11 07:21:22;;;;;;;21.10;11.83;;;-5.50;99.90;;;;;;5082460;28;20229;-80
2022/12/11 07:23:50;;;;;;;18.53;11.43;;;-5.50;99.90;;;;;;5095793;27;20227;-80
2022/12/11 07:26:21;;;;;;;21.47;11.43;;;-5.50;99.90;;;;;;5096763;27;20255;-79
2022/12/11 07:28:47;;;;;;;27.70;12.17;;;-5.60;99.90;;;;;;5097183;27;20229;-80
2022/12/11 07:31:16;;;;;;;22.17;12.00;;;-5.60;99.90;;;;;;5100922;28;20952;-80
2022/12/11 07:33:44;;;;;;;22.87;11.80;;;-5.60;99.90;;;;;;5091667;27;20262;-80
2022/12/11 07:36:12;;;;;;;22.33;12.40;;;-5.60;99.90;;;;;;5093181;28;20296;-81
2022/12/11 07:38:40;;;;;;;23.93;12.80;;;-5.60;99.90;;;;;;5100735;27;20282;-80
2022/12/11 07:41:08;;;;;;;23.03;12.53;;;-5.60;99.90;;;;;;5101202;28;20213;-81
2022/12/11 07:43:37;;;;;;;47.87;14.40;;;-5.60;99.90;;;;;;5105015;27;20226;-81
2022/12/11 07:46:06;;;;;;;26.20;13.43;;;-5.60;99.90;;;;;;5094753;28;20230;-82
2022/12/11 07:48:37;;;;;;;26.80;12.60;;;-5.50;99.90;;;;;;5113948;27;20217;-84
2022/12/11 07:51:09;;;;;;;30.17;12.77;;;-5.40;99.90;;;;;;5088316;27;20766;-83
2022/12/11 07:53:36;;;;;;;25.83;13.00;;;-5.30;99.90;;;;;;5086098;28;20917;-82
2022/12/11 07:56:04;;;;;;;23.33;13.03;;;-5.20;99.90;;;;;;5077065;28;20279;-84
2022/12/11 07:58:30;;;;;;;21.57;12.33;;;-5.10;99.90;;;;;;5105118;27;20239;-80
2022/12/11 08:00:58;;;;;;;22.13;13.00;;;-5.00;99.90;;;;;;5091403;27;20245;-83
2022/12/11 08:03:28;;;;;;;22.97;12.10;;;-4.90;99.90;;;;;;5082463;27;20227;-84
2022/12/11 08:05:55;;;;;;;43.97;14.10;;;-4.90;99.90;;;;;;5092232;28;20570;-82
2022/12/11 08:08:21;;;;;;;23.83;13.17;;;-4.80;99.90;;;;;;5094041;27;20283;-83
2022/12/11 08:10:48;;;;;;;22.33;12.40;;;-4.80;99.90;;;;;;5087837;28;20224;-84
2022/12/11 08:13:15;;;;;;;22.83;12.63;;;-4.70;99.90;;;;;;5085897;28;20223;-82
2022/12/11 08:15:42;;;;;;;21.57;11.80;;;-4.70;99.90;;;;;;5089850;28;20230;-83
2022/12/11 08:18:10;;;;;;;21.13;11.57;;;-4.60;99.90;;;;;;5086588;28;20223;-83
2022/12/11 08:20:38;;;;;;;20.53;12.13;;;-4.40;99.90;;;;;;5085155;28;20229;-85
2022/12/11 08:23:04;;;;;;;18.37;11.13;;;-4.30;99.90;;;;;;5083032;28;20223;-85
2022/12/11 08:25:31;;;;;;;23.80;11.83;;;-4.10;99.90;;;;;;5083025;28;20949;-82
2022/12/11 08:27:58;;;;;;;24.47;11.80;;;-3.80;99.90;;;;;;5092788;28;20213;-81
2022/12/11 08:30:24;;;;;;;22.60;12.03;;;-3.50;99.90;;;;;;5092090;28;20229;-83
2022/12/11 08:32:53;;;;;;;17.67;10.80;;;-3.10;99.90;;;;;;5082405;28;20314;-83
2022/12/11 08:35:21;;;;;;;17.90;11.00;;;-2.70;99.90;;;;;;5080945;28;20711;-81
2022/12/11 08:37:49;;;;;;;19.30;13.93;;;-2.30;99.90;;;;;;5087931;28;20226;-82
2022/12/11 08:40:16;;;;;;;17.77;11.47;;;-1.90;99.90;;;;;;5084860;28;20225;-82
2022/12/11 08:42:43;;;;;;;16.37;10.50;;;-1.60;99.90;;;;;;5087832;28;20221;-83
2022/12/11 08:45:10;;;;;;;16.20;11.17;;;-1.10;99.90;;;;;;5081851;28;20620;-83
2022/12/11 08:47:37;;;;;;;18.23;10.67;;;-0.80;99.90;;;;;;5081516;28;20230;-80
2022/12/11 08:50:05;;;;;;;16.20;10.00;;;-0.50;99.90;;;;;;5080305;28;20708;-81
2022/12/11 08:52:34;;;;;;;15.33;10.03;;;-0.20;99.90;;;;;;5095555;28;20221;-85
2022/12/11 08:55:01;;;;;;;15.23;10.67;;;0.20;99.90;;;;;;5084355;28;20219;-84
2022/12/11 08:57:28;;;;;;;15.50;10.17;;;0.50;99.90;;;;;;5079394;28;20230;-81
2022/12/11 08:59:55;;;;;;;15.37;10.17;;;0.80;99.90;;;;;;5079631;28;20233;-81
2022/12/11 09:02:21;;;;;;;15.27;10.67;;;1.10;99.90;;;;;;5095407;28;20232;-82
2022/12/11 09:04:48;;;;;;;15.50;10.67;;;1.30;99.90;;;;;;5084552;28;20211;-82
2022/12/11 09:07:16;;;;;;;15.67;10.63;;;1.60;99.90;;;;;;5079373;28;20230;-84
2022/12/11 09:09:44;;;;;;;14.17;10.33;;;1.90;99.90;;;;;;5070231;28;20237;-82
2022/12/11 09:12:11;;;;;;;14.63;10.00;;;2.20;99.90;;;;;;5086224;27;20220;-84
2022/12/11 09:14:39;;;;;;;15.33;11.23;;;2.40;99.90;;;;;;5089490;27;20235;-83
2022/12/11 09:17:05;;;;;;;14.27;9.83;;;2.70;99.90;;;;;;5084253;28;20786;-83
2022/12/11 09:19:32;;;;;;;14.17;9.93;;;2.90;99.90;;;;;;5082504;27;20251;-83
2022/12/11 09:21:59;;;;;;;13.27;10.10;;;3.10;99.90;;;;;;5094463;28;20222;-84
2022/12/11 09:24:26;;;;;;;14.87;10.13;;;3.30;99.90;;;;;;5092416;27;20222;-84
2022/12/11 09:26:54;;;;;;;20.70;13.13;;;3.50;99.90;;;;;;5090875;28;20236;-82
2022/12/11 09:29:20;;;;;;;16.03;10.43;;;3.70;99.90;;;;;;5099269;27;20222;-82
2022/12/11 09:31:48;;;;;;;13.77;10.20;;;3.80;99.90;;;;;;5087623;28;20627;-82
2022/12/11 09:34:23;;;;;;;15.67;11.27;;;4.00;99.90;;;;;;5085841;28;20254;-83
2022/12/11 09:36:53;;;;;;;16.70;12.50;;;4.20;99.90;;;;;;5103102;27;20226;-85
2022/12/11 09:39:20;;;;;;;15.20;10.77;;;4.30;99.90;;;;;;5085443;28;20692;-84
2022/12/11 09:41:53;;;;;;;19.37;12.20;;;4.40;99.90;;;;;;5084988;28;21391;-83
2022/12/11 09:44:32;;;;;;;14.00;10.23;;;4.50;99.90;;;;;;5094907;28;20608;-84
2022/12/11 09:46:59;;;;;;;12.03;9.67;;;4.60;99.90;;;;;;5087887;28;20810;-84
2022/12/11 09:49:33;;;;;;;12.77;9.80;;;4.80;99.90;;;;;;5102282;27;20227;-83
2022/12/11 09:52:10;;;;;;;13.30;9.77;;;4.80;99.90;;;;;;5108431;28;20645;-82
2022/12/11 09:54:41;;;;;;;14.33;9.67;;;5.00;99.70;;;;;;5095433;28;20236;-83
2022/12/11 09:57:19;;;;;;;13.50;9.60;;;5.10;99.90;;;;;;5104560;27;20232;-85
2022/12/11 10:00:10;;;;;;;13.60;10.07;;;5.10;99.30;;;;;;5090238;27;20256;-82
2022/12/11 10:02:55;;;;;;;13.10;10.07;;;5.20;98.90;;;;;;5093537;27;20225;-82
2022/12/11 10:05:32;;;;;;;12.73;10.47;;;5.20;98.30;;;;;;5111825;27;20228;-83
2022/12/11 10:08:05;;;;;;;17.60;11.30;;;5.20;98.50;;;;;;5090939;28;20224;-83
2022/12/11 10:10:40;;;;;;;15.77;11.47;;;5.00;97.40;;;;;;5095360;28;20230;-83
2022/12/11 10:13:17;;;;;;;16.87;11.90;;;4.90;97.90;;;;;;5084111;28;20919;-84
2022/12/11 10:15:51;;;;;;;15.77;11.73;;;4.70;97.80;;;;;;5093522;27;20234;-83
2022/12/11 10:18:24;;;;;;;15.03;11.23;;;4.60;97.70;;;;;;5086721;28;20742;-83
2022/12/11 10:20:52;;;;;;;16.80;10.77;;;4.30;97.50;;;;;;5099556;28;20778;-83
2022/12/11 10:23:22;;;;;;;14.87;11.20;;;4.10;97.70;;;;;;5076690;28;20244;-83
2022/12/11 10:25:54;;;;;;;16.70;11.60;;;3.90;98.10;;;;;;5092748;28;20759;-83
2022/12/11 10:28:21;;;;;;;15.83;10.93;;;3.70;98.50;;;;;;5094796;28;20215;-83
2022/12/11 10:30:55;;;;;;;14.93;10.77;;;3.60;99.00;;;;;;5104343;27;20232;-82
2022/12/11 10:33:28;;;;;;;16.00;11.43;;;3.60;98.90;;;;;;5099429;27;20218;-83
2022/12/11 10:35:57;;;;;;;13.90;10.57;;;3.60;99.10;;;;;;5114975;27;20643;-84
2022/12/11 10:38:29;;;;;;;14.00;10.23;;;3.60;99.40;;;;;;5077943;27;20245;-80
2022/12/11 10:40:58;;;;;;;14.40;9.87;;;3.50;98.50;;;;;;5082476;28;20917;-82
2022/12/11 10:43:41;;;;;;;15.70;10.97;;;3.40;98.50;;;;;;5080383;28;20236;-81
2022/12/11 10:46:17;;;;;;;15.50;10.43;;;3.30;98.40;;;;;;5106998;27;20223;-80
2022/12/11 10:48:48;;;;;;;15.00;9.70;;;3.20;98.70;;;;;;5076835;28;20231;-81
2022/12/11 10:51:15;;;;;;;13.30;9.40;;;3.10;98.60;;;;;;5091423;27;20364;-81
2022/12/11 10:53:43;;;;;;;14.17;9.93;;;3.00;98.90;;;;;;5103377;27;20221;-80
2022/12/11 10:56:13;;;;;;;14.40;9.60;;;2.80;98.90;;;;;;5090346;28;20234;-81
2022/12/11 10:58:49;;;;;;;16.13;10.60;;;2.70;98.90;;;;;;5086550;27;20699;-80
2022/12/11 11:01:21;;;;;;;17.00;10.73;;;2.50;98.70;;;;;;5092932;28;20339;-80
2022/12/11 11:03:59;;;;;;;15.57;9.87;;;2.40;98.70;;;;;;5104630;27;20256;-81
2022/12/11 11:06:27;;;;;;;16.10;10.37;;;2.20;98.30;;;;;;5096330;27;20705;-81
2022/12/11 11:08:56;;;;;;;15.70;10.73;;;2.00;98.50;;;;;;5080151;28;20276;-81
2022/12/11 11:11:27;;;;;;;15.77;10.73;;;1.80;98.50;;;;;;5103388;27;20239;-81
2022/12/11 11:14:14;;;;;;;15.23;10.33;;;1.60;99.10;;;;;;5094079;28;20964;-81
2022/12/11 11:16:44;;;;;;;15.60;10.10;;;1.40;99.40;;;;;;5075719;28;20317;-81
2022/12/11 11:19:20;;;;;;;16.70;10.50;;;1.20;99.50;;;;;;5081380;28;20219;-81
2022/12/11 11:21:50;;;;;;;17.07;10.00;;;1.10;99.70;;;;;;5104801;27;20217;-80
2022/12/11 11:24:28;;;;;;;13.90;9.83;;;1.10;99.90;;;;;;5097103;28;20225;-80
2022/12/11 11:26:55;;;;;;;16.53;11.20;;;1.10;99.90;;;;;;5098204;27;20240;-80
2022/12/11 11:29:28;;;;;;;15.57;11.90;;;1.00;99.90;;;;;;5102414;27;20292;-81
2022/12/11 11:31:57;;;;;;;16.13;10.37;;;1.00;98.80;;;;;;5091498;28;20224;-81
2022/12/11 11:34:25;;;;;;;14.10;9.67;;;0.90;98.60;;;;;;5092845;27;20705;-81
2022/12/11 11:37:04;;;;;;;16.33;10.37;;;0.70;98.90;;;;;;5105351;27;20236;-81
2022/12/11 11:39:37;;;;;;;15.73;10.23;;;0.60;99.30;;;;;;5088053;27;20222;-81
2022/12/11 11:42:12;;;;;;;14.30;9.87;;;0.50;99.80;;;;;;5085167;28;20223;-80
2022/12/11 11:44:42;;;;;;;27.00;16.13;;;0.40;99.90;;;;;;5089960;27;20214;-80
2022/12/11 11:47:14;;;;;;;14.80;9.87;;;0.30;99.90;;;;;;5081201;27;20612;-80
2022/12/11 11:49:50;;;;;;;14.53;9.73;;;0.30;99.90;;;;;;5101363;27;20221;-81
2022/12/11 11:52:24;;;;;;;16.03;10.27;;;0.20;99.40;;;;;;5095756;28;20258;-81
2022/12/11 11:54:56;;;;;;;15.83;9.70;;;0.10;99.60;;;;;;5091547;27;20640;-81
2022/12/11 11:57:33;;;;;;;15.73;9.97;;;0.00;99.90;;;;;;5127654;27;20220;-81
2022/12/11 12:00:08;;;;;;;18.40;10.77;;;-0.10;99.90;;;;;;5100442;28;20221;-81
2022/12/11 12:02:47;;;;;;;14.97;9.57;;;-0.10;99.90;;;;;;5088500;28;20218;-81
2022/12/11 12:05:23;;;;;;;16.67;10.53;;;-0.10;99.90;;;;;;5091096;27;20903;-82
2022/12/11 12:08:02;;;;;;;17.00;10.90;;;-0.10;99.90;;;;;;5075347;28;20245;-81
2022/12/11 12:10:41;;;;;;;16.03;9.93;;;0.00;99.90;;;;;;5097783;27;20237;-81
2022/12/11 12:13:17;;;;;;;15.37;9.70;;;0.00;99.90;;;;;;5095265;27;20652;-81
2022/12/11 12:15:51;;;;;;;15.60;10.17;;;0.10;99.90;;;;;;5111967;27;20227;-81
2022/12/11 12:18:27;;;;;;;15.07;9.13;;;0.20;99.90;;;;;;5076792;28;20324;-81
2022/12/11 12:21:00;;;;;;;15.80;9.87;;;0.20;99.90;;;;;;5078434;28;20228;-82
2022/12/11 12:23:49;;;;;;;13.10;9.27;;;0.30;99.90;;;;;;5078898;28;20261;-81
2022/12/11 12:26:25;;;;;;;15.73;9.93;;;0.40;99.90;;;;;;5103070;27;20232;-81
2022/12/11 12:29:01;;;;;;;16.43;10.50;;;0.40;99.90;;;;;;5081037;28;20243;-82
2022/12/11 12:31:43;;;;;;;15.33;10.17;;;0.50;99.90;;;;;;5076364;28;20230;-81
2022/12/11 12:34:20;;;;;;;14.43;9.90;;;0.50;99.90;;;;;;5086308;28;20290;-80
2022/12/11 12:36:58;;;;;;;14.30;10.03;;;0.60;99.90;;;;;;5071773;28;20847;-81
2022/12/11 12:39:31;;;;;;;16.37;10.03;;;0.60;99.90;;;;;;5077887;28;20221;-81
2022/12/11 12:42:03;;;;;;;15.53;10.13;;;0.70;99.90;;;;;;5074694;28;20218;-80
2022/12/11 12:44:40;;;;;;;15.07;10.00;;;0.70;99.90;;;;;;5104037;27;20865;-82
2022/12/11 12:47:11;;;;;;;13.60;9.50;;;0.70;99.90;;;;;;5104451;28;20347;-81
2022/12/11 12:49:42;;;;;;;16.13;10.40;;;0.70;99.90;;;;;;5102874;27;20619;-81
2022/12/11 12:52:16;;;;;;;14.77;9.10;;;0.80;99.90;;;;;;5103986;28;20229;-81
2022/12/11 12:55:12;;;;;;;16.00;10.57;;;0.70;99.90;;;;;;5081231;28;20953;-81